Time,TemperatureF,DewpointF,PressureIn,WindDirection,WindDirectionDegrees,WindSpeedMPH,WindSpeedGustMPH,Humidity,HourlyPrecipIn,Conditions,Clouds,dailyrainin,SoftwareType,DateUTC
2013-02-09 00:02:00,36.0,32.0,30.20,WNW,299,1.0,4.0,85,0.00,,,0.03,,2013-02-09 05:02:00,
2013-02-09 00:12:00,36.0,32.0,30.20,WNW,299,1.0,4.0,85,0.00,,,0.03,,2013-02-09 05:12:00,
2013-02-09 00:22:00,36.0,32.0,30.20,WNW,301,1.0,3.0,85,0.00,,,0.03,,2013-02-09 05:22:00,
2013-02-09 00:32:00,36.0,32.0,30.20,WNW,301,1.0,3.0,85,0.00,,,0.03,,2013-02-09 05:32:00,
2013-02-09 00:42:00,36.0,32.0,30.20,WNW,301,1.0,3.0,85,0.00,,,0.03,,2013-02-09 05:42:00,
2013-02-09 00:52:00,35.0,31.0,30.19,WNW,301,1.0,4.0,86,0.00,,,0.03,,2013-02-09 05:52:00,
2013-02-09 01:02:00,35.0,31.0,30.19,WNW,301,1.0,4.0,86,0.00,,,0.03,,2013-02-09 06:02:00,
2013-02-09 01:11:00,35.0,31.0,30.19,WNW,301,1.0,4.0,86,0.00,,,0.03,,2013-02-09 06:11:00,
2013-02-09 01:21:00,34.0,31.0,30.21,WNW,286,2.0,5.0,87,0.00,,,0.03,,2013-02-09 06:21:00,
2013-02-09 01:32:00,34.0,31.0,30.21,WNW,286,2.0,5.0,87,0.00,,,0.03,,2013-02-09 06:32:00,
2013-02-09 01:42:00,34.0,31.0,30.21,WNW,286,2.0,5.0,87,0.00,,,0.03,,2013-02-09 06:42:00,
2013-02-09 01:52:00,34.0,31.0,30.22,West,279,2.0,5.0,88,0.00,,,0.03,,2013-02-09 06:52:00,
2013-02-09 02:01:00,34.0,31.0,30.22,West,279,2.0,5.0,88,0.00,,,0.03,,2013-02-09 07:01:00,
2013-02-09 02:11:00,34.0,31.0,30.22,West,279,2.0,5.0,88,0.00,,,0.03,,2013-02-09 07:11:00,
2013-02-09 02:21:00,33.0,30.0,30.23,West,275,0.0,3.0,89,0.00,,,0.03,,2013-02-09 07:21:00,
2013-02-09 02:31:00,33.0,30.0,30.23,West,275,0.0,3.0,89,0.00,,,0.03,,2013-02-09 07:31:00,
2013-02-09 02:42:00,33.0,30.0,30.23,West,275,0.0,3.0,89,0.00,,,0.03,,2013-02-09 07:42:00,
2013-02-09 02:52:00,33.0,30.0,30.23,West,275,0.0,3.0,89,0.00,,,0.03,,2013-02-09 07:52:00,
2013-02-09 03:01:00,33.0,30.0,30.23,West,275,0.0,3.0,89,0.00,,,0.03,,2013-02-09 08:01:00,
2013-02-09 03:21:00,33.0,30.0,30.23,WNW,303,0.0,1.0,90,0.00,,,0.03,,2013-02-09 08:21:00,
2013-02-09 03:32:00,33.0,30.0,30.23,WNW,303,0.0,1.0,90,0.00,,,0.03,,2013-02-09 08:32:00,
2013-02-09 03:42:00,33.0,30.0,30.23,WNW,303,0.0,1.0,90,0.00,,,0.03,,2013-02-09 08:42:00,
2013-02-09 03:52:00,32.0,30.0,30.24,WNW,303,1.0,3.0,91,0.00,,,0.03,,2013-02-09 08:52:00,
2013-02-09 04:03:00,32.0,30.0,30.24,WNW,303,1.0,3.0,91,0.00,,,0.03,,2013-02-09 09:03:00,
2013-02-09 04:11:00,32.0,30.0,30.24,WNW,303,1.0,3.0,91,0.00,,,0.03,,2013-02-09 09:11:00,
2013-02-09 04:22:00,32.0,30.0,30.24,WNW,303,0.0,1.0,92,0.00,,,0.03,,2013-02-09 09:22:00,
2013-02-09 04:32:00,32.0,30.0,30.24,WNW,303,0.0,1.0,92,0.00,,,0.03,,2013-02-09 09:32:00,
2013-02-09 04:42:00,32.0,30.0,30.24,WNW,303,0.0,1.0,92,0.00,,,0.03,,2013-02-09 09:42:00,
2013-02-09 04:52:00,32.0,30.0,30.25,WNW,302,1.0,3.0,92,0.00,,,0.03,,2013-02-09 09:52:00,
2013-02-09 05:01:00,32.0,30.0,30.25,WNW,302,1.0,3.0,92,0.00,,,0.03,,2013-02-09 10:01:00,
2013-02-09 05:11:00,32.0,30.0,30.25,WNW,302,1.0,3.0,92,0.00,,,0.03,,2013-02-09 10:11:00,
2013-02-09 05:21:00,31.0,29.0,30.25,WNW,302,0.0,1.0,92,0.00,,,0.03,,2013-02-09 10:21:00,
2013-02-09 05:32:00,31.0,29.0,30.25,WNW,302,0.0,1.0,92,0.00,,,0.03,,2013-02-09 10:32:00,
2013-02-09 05:42:00,31.0,29.0,30.25,WNW,302,0.0,1.0,92,0.00,,,0.03,,2013-02-09 10:42:00,
2013-02-09 05:52:00,31.0,29.0,30.26,WNW,302,0.0,2.0,92,0.00,,,0.03,,2013-02-09 10:52:00,
2013-02-09 06:01:00,31.0,29.0,30.26,WNW,302,0.0,2.0,92,0.00,,,0.03,,2013-02-09 11:01:00,
2013-02-09 06:11:00,31.0,29.0,30.26,WNW,302,0.0,2.0,92,0.00,,,0.03,,2013-02-09 11:11:00,
2013-02-09 06:22:00,31.0,29.0,30.26,WNW,302,0.0,2.0,93,0.00,,,0.03,,2013-02-09 11:22:00,
2013-02-09 06:32:00,31.0,29.0,30.26,WNW,302,0.0,2.0,93,0.00,,,0.03,,2013-02-09 11:32:00,
2013-02-09 06:42:00,31.0,29.0,30.26,WNW,302,0.0,2.0,93,0.00,,,0.03,,2013-02-09 11:42:00,
2013-02-09 06:52:00,31.0,29.0,30.26,WNW,302,0.0,2.0,93,0.00,,,0.03,,2013-02-09 11:52:00,
2013-02-09 07:02:00,31.0,29.0,30.26,WNW,302,0.0,2.0,93,0.00,,,0.03,,2013-02-09 12:02:00,
2013-02-09 07:11:00,31.0,29.0,30.26,WNW,302,0.0,2.0,93,0.00,,,0.03,,2013-02-09 12:11:00,
2013-02-09 07:22:00,31.0,29.0,30.26,WNW,302,0.0,2.0,92,0.00,,,0.03,,2013-02-09 12:22:00,
2013-02-09 07:32:00,31.0,29.0,30.26,WNW,302,0.0,2.0,92,0.00,,,0.03,,2013-02-09 12:32:00,
2013-02-09 07:42:00,31.0,29.0,30.26,WNW,302,0.0,2.0,92,0.00,,,0.03,,2013-02-09 12:42:00,
2013-02-09 07:53:00,31.0,29.0,30.27,WNW,302,0.0,2.0,92,0.00,,,0.03,,2013-02-09 12:53:00,
2013-02-09 08:02:00,31.0,29.0,30.27,WNW,302,0.0,2.0,92,0.00,,,0.03,,2013-02-09 13:02:00,
2013-02-09 08:11:00,31.0,29.0,30.27,WNW,302,0.0,2.0,92,0.00,,,0.03,,2013-02-09 13:11:00,
2013-02-09 08:22:00,31.0,29.0,30.29,WNW,302,0.0,1.0,92,0.00,,,0.03,,2013-02-09 13:22:00,
2013-02-09 08:32:00,31.0,29.0,30.29,WNW,302,0.0,1.0,92,0.00,,,0.03,,2013-02-09 13:32:00,
2013-02-09 08:42:00,31.0,29.0,30.29,WNW,302,0.0,1.0,92,0.00,,,0.03,,2013-02-09 13:42:00,
2013-02-09 08:52:00,33.0,31.0,30.30,WNW,302,0.0,2.0,92,0.00,,,0.03,,2013-02-09 13:52:00,
2013-02-09 09:01:00,33.0,31.0,30.30,WNW,302,0.0,2.0,92,0.00,,,0.03,,2013-02-09 14:01:00,
2013-02-09 09:11:00,33.0,31.0,30.30,WNW,302,0.0,2.0,92,0.00,,,0.03,,2013-02-09 14:11:00,
2013-02-09 09:21:00,35.0,31.0,30.31,WNW,302,1.0,3.0,86,0.00,,,0.03,,2013-02-09 14:21:00,
2013-02-09 09:32:00,35.0,31.0,30.31,WNW,302,1.0,3.0,86,0.00,,,0.03,,2013-02-09 14:32:00,
2013-02-09 09:42:00,35.0,31.0,30.31,WNW,302,1.0,3.0,86,0.00,,,0.03,,2013-02-09 14:42:00,
2013-02-09 09:52:00,40.0,34.0,30.32,WNW,302,0.0,1.0,79,0.00,,,0.03,,2013-02-09 14:52:00,
2013-02-09 10:02:00,40.0,34.0,30.32,WNW,302,0.0,1.0,79,0.00,,,0.03,,2013-02-09 15:02:00,
2013-02-09 10:11:00,40.0,34.0,30.32,WNW,302,0.0,1.0,79,0.00,,,0.03,,2013-02-09 15:11:00,
2013-02-09 10:22:00,44.0,34.0,30.33,WNW,302,0.0,1.0,68,0.00,,,0.03,,2013-02-09 15:22:00,
2013-02-09 10:32:00,44.0,34.0,30.33,WNW,302,0.0,1.0,68,0.00,,,0.03,,2013-02-09 15:32:00,
2013-02-09 10:42:00,44.0,34.0,30.33,WNW,302,0.0,1.0,68,0.00,,,0.03,,2013-02-09 15:42:00,
2013-02-09 10:52:00,48.0,34.0,30.34,WNW,302,0.0,2.0,58,0.00,,,0.03,,2013-02-09 15:52:00,
2013-02-09 11:01:00,48.0,34.0,30.34,WNW,302,0.0,2.0,58,0.00,,,0.03,,2013-02-09 16:01:00,
2013-02-09 11:11:00,48.0,34.0,30.34,WNW,302,0.0,2.0,58,0.00,,,0.03,,2013-02-09 16:11:00,
2013-02-09 11:22:00,50.0,31.0,30.34,ENE,73,1.0,2.0,48,0.00,,,0.03,,2013-02-09 16:22:00,
2013-02-09 11:32:00,50.0,31.0,30.34,ENE,73,1.0,2.0,48,0.00,,,0.03,,2013-02-09 16:32:00,
2013-02-09 11:42:00,50.0,31.0,30.34,ENE,73,1.0,2.0,48,0.00,,,0.03,,2013-02-09 16:42:00,
2013-02-09 11:52:00,54.0,31.0,30.34,ENE,73,0.0,2.0,42,0.00,,,0.03,,2013-02-09 16:52:00,
2013-02-09 12:01:00,54.0,31.0,30.34,ENE,73,0.0,2.0,42,0.00,,,0.03,,2013-02-09 17:01:00,
2013-02-09 12:11:00,54.0,31.0,30.34,ENE,73,0.0,2.0,42,0.00,,,0.03,,2013-02-09 17:11:00,
2013-02-09 12:21:00,55.0,31.0,30.32,South,178,0.0,3.0,39,0.00,,,0.01,,2013-02-09 17:21:00,
2013-02-09 12:32:00,55.0,31.0,30.32,South,178,0.0,3.0,39,0.00,,,0.01,,2013-02-09 17:32:00,
2013-02-09 12:42:00,55.0,31.0,30.32,South,178,0.0,3.0,39,0.00,,,0.01,,2013-02-09 17:42:00,
2013-02-09 12:52:00,58.0,30.0,30.32,SW,217,0.0,3.0,34,0.00,,,0.01,,2013-02-09 17:52:00,
2013-02-09 13:02:00,58.0,30.0,30.32,SW,217,0.0,3.0,34,0.00,,,0.01,,2013-02-09 18:02:00,
2013-02-09 13:12:00,58.0,30.0,30.32,SW,217,0.0,3.0,34,0.00,,,0.01,,2013-02-09 18:12:00,
2013-02-09 13:23:00,58.0,30.0,30.32,SW,217,0.0,3.0,34,0.00,,,0.01,,2013-02-09 18:23:00,
2013-02-09 13:32:00,58.0,30.0,30.32,SW,217,0.0,3.0,34,0.00,,,0.01,,2013-02-09 18:32:00,
2013-02-09 13:52:00,59.0,27.0,30.29,ENE,76,1.0,6.0,29,0.00,,,0.00,,2013-02-09 18:52:00,
2013-02-09 14:02:00,59.0,27.0,30.29,ENE,76,1.0,6.0,29,0.00,,,0.00,,2013-02-09 19:02:00,
2013-02-09 14:11:00,59.0,27.0,30.29,ENE,76,1.0,6.0,29,0.00,,,0.00,,2013-02-09 19:11:00,
2013-02-09 14:22:00,62.0,29.0,30.28,East,99,1.0,4.0,28,0.00,,,0.00,,2013-02-09 19:22:00,
2013-02-09 14:32:00,62.0,29.0,30.28,East,99,1.0,4.0,28,0.00,,,0.00,,2013-02-09 19:32:00,
2013-02-09 14:42:00,62.0,29.0,30.28,East,99,1.0,4.0,28,0.00,,,0.00,,2013-02-09 19:42:00,
2013-02-09 14:52:00,61.0,26.0,30.26,ESE,108,1.0,4.0,26,0.00,,,0.00,,2013-02-09 19:52:00,
2013-02-09 15:01:00,61.0,26.0,30.26,ESE,108,1.0,4.0,26,0.00,,,0.00,,2013-02-09 20:01:00,
2013-02-09 15:11:00,61.0,26.0,30.26,ESE,108,1.0,4.0,26,0.00,,,0.00,,2013-02-09 20:11:00,
2013-02-09 15:21:00,61.0,27.0,30.25,South,187,0.0,7.0,27,0.00,,,0.00,,2013-02-09 20:21:00,
2013-02-09 15:32:00,61.0,27.0,30.25,South,187,0.0,7.0,27,0.00,,,0.00,,2013-02-09 20:32:00,
2013-02-09 15:42:00,61.0,27.0,30.25,South,187,0.0,7.0,27,0.00,,,0.00,,2013-02-09 20:42:00,
2013-02-09 15:52:00,60.0,27.0,30.25,SE,133,1.0,8.0,28,0.00,,,0.00,,2013-02-09 20:52:00,
2013-02-09 16:02:00,60.0,27.0,30.25,SE,133,1.0,8.0,28,0.00,,,0.00,,2013-02-09 21:02:00,
2013-02-09 16:12:00,60.0,27.0,30.25,SE,133,1.0,8.0,28,0.00,,,0.00,,2013-02-09 21:12:00,
2013-02-09 16:21:00,60.0,28.0,30.25,South,172,0.0,7.0,29,0.00,,,0.00,,2013-02-09 21:21:00,
2013-02-09 16:32:00,60.0,28.0,30.25,South,172,0.0,7.0,29,0.00,,,0.00,,2013-02-09 21:32:00,
2013-02-09 16:42:00,60.0,28.0,30.25,South,172,0.0,7.0,29,0.00,,,0.00,,2013-02-09 21:42:00,
2013-02-09 16:52:00,60.0,26.0,30.25,East,89,1.0,7.0,27,0.00,,,0.00,,2013-02-09 21:52:00,
2013-02-09 17:01:00,60.0,26.0,30.25,East,89,1.0,7.0,27,0.00,,,0.00,,2013-02-09 22:01:00,
2013-02-09 17:11:00,60.0,26.0,30.25,East,89,1.0,7.0,27,0.00,,,0.00,,2013-02-09 22:11:00,
2013-02-09 17:22:00,60.0,27.0,30.25,East,89,0.0,7.0,28,0.00,,,0.00,,2013-02-09 22:22:00,
2013-02-09 17:32:00,60.0,27.0,30.25,East,89,0.0,7.0,28,0.00,,,0.00,,2013-02-09 22:32:00,
2013-02-09 17:42:00,60.0,27.0,30.25,East,89,0.0,7.0,28,0.00,,,0.00,,2013-02-09 22:42:00,
2013-02-09 17:52:00,59.0,28.0,30.25,SE,125,1.0,4.0,30,0.00,,,0.00,,2013-02-09 22:52:00,
2013-02-09 18:02:00,59.0,28.0,30.25,SE,125,1.0,4.0,30,0.00,,,0.00,,2013-02-09 23:02:00,
2013-02-09 18:11:00,59.0,28.0,30.25,SE,125,1.0,4.0,30,0.00,,,0.00,,2013-02-09 23:11:00,
2013-02-09 18:21:00,58.0,28.0,30.26,ESE,113,0.0,3.0,31,0.00,,,0.00,,2013-02-09 23:21:00,
2013-02-09 18:32:00,58.0,28.0,30.26,ESE,113,0.0,3.0,31,0.00,,,0.00,,2013-02-09 23:32:00,
2013-02-09 18:42:00,58.0,28.0,30.26,ESE,113,0.0,3.0,31,0.00,,,0.00,,2013-02-09 23:42:00,
2013-02-09 18:52:00,57.0,28.0,30.27,ESE,113,0.0,1.0,33,0.00,,,0.00,,2013-02-09 23:52:00,
2013-02-09 19:02:00,57.0,28.0,30.27,ESE,113,0.0,1.0,33,0.00,,,0.00,,2013-02-10 00:02:00,
2013-02-09 19:12:00,57.0,28.0,30.27,ESE,113,0.0,1.0,33,0.00,,,0.00,,2013-02-10 00:12:00,
2013-02-09 19:22:00,55.0,29.0,30.27,ESE,113,0.0,2.0,36,0.00,,,0.00,,2013-02-10 00:22:00,
2013-02-09 19:32:00,55.0,29.0,30.27,ESE,113,0.0,2.0,36,0.00,,,0.00,,2013-02-10 00:32:00,
2013-02-09 19:42:00,55.0,29.0,30.27,ESE,113,0.0,2.0,36,0.00,,,0.00,,2013-02-10 00:42:00,
2013-02-09 19:52:00,53.0,28.0,30.28,ESE,113,0.0,2.0,38,0.00,,,0.00,,2013-02-10 00:52:00,
2013-02-09 20:01:00,53.0,28.0,30.28,ESE,113,0.0,2.0,38,0.00,,,0.00,,2013-02-10 01:01:00,
2013-02-09 20:12:00,53.0,28.0,30.28,ESE,113,0.0,2.0,38,0.00,,,0.00,,2013-02-10 01:12:00,
2013-02-09 20:22:00,52.0,28.0,30.28,ESE,113,0.0,1.0,40,0.00,,,0.00,,2013-02-10 01:22:00,
2013-02-09 20:32:00,52.0,28.0,30.28,ESE,113,0.0,1.0,40,0.00,,,0.00,,2013-02-10 01:32:00,
2013-02-09 20:42:00,52.0,28.0,30.28,ESE,113,0.0,1.0,40,0.00,,,0.00,,2013-02-10 01:42:00,
2013-02-09 20:52:00,51.0,29.0,30.28,ESE,113,0.0,1.0,42,0.00,,,0.00,,2013-02-10 01:52:00,
2013-02-09 21:01:00,51.0,29.0,30.28,ESE,113,0.0,1.0,42,0.00,,,0.00,,2013-02-10 02:01:00,
2013-02-09 21:11:00,51.0,29.0,30.28,ESE,113,0.0,1.0,42,0.00,,,0.00,,2013-02-10 02:11:00,
2013-02-09 21:22:00,49.0,29.0,30.29,ESE,113,0.0,1.0,45,0.00,,,0.00,,2013-02-10 02:22:00,
2013-02-09 21:32:00,49.0,29.0,30.29,ESE,113,0.0,1.0,45,0.00,,,0.00,,2013-02-10 02:32:00,
2013-02-09 21:42:00,49.0,29.0,30.29,ESE,113,0.0,1.0,45,0.00,,,0.00,,2013-02-10 02:42:00,
2013-02-09 21:52:00,49.0,30.0,30.29,ESE,113,0.0,3.0,47,0.00,,,0.00,,2013-02-10 02:52:00,
2013-02-09 22:02:00,49.0,30.0,30.29,ESE,113,0.0,3.0,47,0.00,,,0.00,,2013-02-10 03:02:00,
2013-02-09 22:11:00,49.0,30.0,30.29,ESE,113,0.0,3.0,47,0.00,,,0.00,,2013-02-10 03:11:00,
2013-02-09 22:22:00,48.0,30.0,30.29,ESE,113,0.0,2.0,49,0.00,,,0.00,,2013-02-10 03:22:00,
2013-02-09 22:32:00,48.0,30.0,30.29,ESE,113,0.0,2.0,49,0.00,,,0.00,,2013-02-10 03:32:00,
2013-02-09 22:42:00,48.0,30.0,30.29,ESE,113,0.0,2.0,49,0.00,,,0.00,,2013-02-10 03:42:00,
2013-02-09 22:52:00,48.0,31.0,30.29,ESE,109,0.0,3.0,51,0.00,,,0.00,,2013-02-10 03:52:00,
2013-02-09 23:01:00,48.0,31.0,30.29,ESE,109,0.0,3.0,51,0.00,,,0.00,,2013-02-10 04:01:00,
2013-02-09 23:11:00,48.0,31.0,30.29,ESE,109,0.0,3.0,51,0.00,,,0.00,,2013-02-10 04:11:00,
2013-02-09 23:22:00,47.0,30.0,30.29,ESE,109,0.0,2.0,52,0.00,,,0.00,,2013-02-10 04:22:00,
2013-02-09 23:32:00,47.0,30.0,30.29,ESE,109,0.0,2.0,52,0.00,,,0.00,,2013-02-10 04:32:00,
2013-02-09 23:42:00,47.0,30.0,30.29,ESE,109,0.0,2.0,52,0.00,,,0.00,,2013-02-10 04:42:00,
2013-02-09 23:52:00,47.0,30.0,30.30,SE,126,0.0,3.0,52,0.00,,,0.00,,2013-02-10 04:52:00,